createdAt,value
2023-04-16T00:00:02.522Z,1016.778
2023-04-16T00:07:01.985Z,1016.778
2023-04-16T00:14:01.900Z,1016.523
2023-04-16T00:21:02.150Z,1016.653
2023-04-16T00:28:02.141Z,1016.719
2023-04-16T00:35:01.914Z,1016.719
2023-04-16T00:42:01.697Z,1016.629
2023-04-16T00:49:01.350Z,1016.236
2023-04-16T00:56:01.988Z,1016.41
2023-04-16T01:00:01.574Z,1016.41
2023-04-16T01:07:01.611Z,1016.714
2023-04-16T01:14:01.674Z,1016.714
2023-04-16T01:21:01.476Z,1016.793
2023-04-16T01:28:01.607Z,1016.865
2023-04-16T01:35:02.444Z,1016.734
2023-04-16T01:42:01.332Z,1016.734
2023-04-16T01:49:02.144Z,1016.867
2023-04-16T01:56:01.473Z,1016.846
2023-04-16T02:00:02.027Z,1016.846
2023-04-16T02:07:01.601Z,1017.033
2023-04-16T02:14:01.884Z,1016.83
2023-04-16T02:21:01.895Z,1016.83
2023-04-16T02:28:02.247Z,1016.915
2023-04-16T02:35:01.507Z,1016.735
2023-04-16T02:42:01.486Z,1016.989
2023-04-16T02:49:01.490Z,1016.989
2023-04-16T02:56:01.381Z,1016.661
2023-04-16T03:00:01.891Z,1016.661
2023-04-16T03:07:01.313Z,1017.101
2023-04-16T03:14:02.117Z,1017
2023-04-16T03:21:02.295Z,1016.819
2023-04-16T03:28:01.407Z,1016.819
2023-04-16T03:35:02.483Z,1016.902
2023-04-16T03:42:02.141Z,1017.112
2023-04-16T03:49:01.412Z,1017.112
2023-04-16T03:56:01.576Z,1017.076
2023-04-16T04:00:02.169Z,1016.959
2023-04-16T04:07:01.664Z,1016.959
2023-04-16T04:14:01.656Z,1017.146
2023-04-16T04:21:02.076Z,1017.188
2023-04-16T04:28:01.686Z,1017.218
2023-04-16T04:35:02.075Z,1017.218
2023-04-16T04:42:01.817Z,1017.285
2023-04-16T04:49:01.979Z,1017.347
2023-04-16T04:56:10.987Z,1017.347
2023-04-16T05:00:02.247Z,1017.387
2023-04-16T05:07:01.821Z,1017.403
2023-04-16T05:14:02.224Z,1017.403
2023-04-16T05:21:02.294Z,1017.562
2023-04-16T05:28:01.747Z,1017.742
2023-04-16T05:35:02.604Z,1017.742
2023-04-16T05:42:01.931Z,1017.715
2023-04-16T05:49:02.078Z,1017.987
2023-04-16T05:56:01.627Z,1017.897
2023-04-16T06:00:02.204Z,1017.897
2023-04-16T06:07:02.159Z,1018.112
2023-04-16T06:14:01.968Z,1018.112
2023-04-16T06:21:01.497Z,1018.187
2023-04-16T06:28:01.766Z,1018.253
2023-04-16T06:35:01.506Z,1018.185
2023-04-16T06:42:02.104Z,1018.185
2023-04-16T06:49:01.980Z,1018.402
2023-04-16T06:56:01.303Z,1018.504
2023-04-16T07:00:01.861Z,1018.504
2023-04-16T07:07:02.041Z,1018.36
2023-04-16T07:14:01.707Z,1018.57
2023-04-16T07:21:01.730Z,1018.57
2023-04-16T07:28:01.600Z,1018.49
2023-04-16T07:35:02.281Z,1018.583
2023-04-16T07:42:01.774Z,1018.704
2023-04-16T07:49:01.415Z,1018.704
2023-04-16T07:56:01.559Z,1018.691
2023-04-16T08:00:02.095Z,1018.691
2023-04-16T08:07:01.922Z,1018.676
2023-04-16T08:14:02.090Z,1018.882
2023-04-16T08:21:02.179Z,1018.811
2023-04-16T08:28:01.622Z,1018.811
2023-04-16T08:35:01.873Z,1019.108
2023-04-16T08:42:02.261Z,1019.184
2023-04-16T08:49:01.771Z,1019.333
2023-04-16T08:56:02.111Z,1019.333
2023-04-16T09:00:01.644Z,1019.193
2023-04-16T09:07:01.622Z,1019.193
2023-04-16T09:14:01.401Z,1019.172
2023-04-16T09:21:02.048Z,1019.383
2023-04-16T09:28:01.763Z,1019.432
2023-04-16T09:35:01.913Z,1019.432
2023-04-16T09:42:01.485Z,1019.352
2023-04-16T09:49:02.059Z,1019.591
2023-04-16T09:56:01.912Z,1019.591
2023-04-16T10:00:02.514Z,1019.501
2023-04-16T10:07:01.542Z,1019.566
2023-04-16T10:14:02.017Z,1019.566
2023-04-16T10:21:01.559Z,1019.698
2023-04-16T10:28:01.840Z,1019.492
2023-04-16T10:35:02.502Z,1019.492
2023-04-16T10:42:02.063Z,1019.702
2023-04-16T10:49:01.745Z,1019.624
2023-04-16T10:56:01.909Z,1019.417
2023-04-16T11:00:02.557Z,1019.417
2023-04-16T11:07:02.227Z,1019.467
2023-04-16T11:14:01.933Z,1019.47
2023-04-16T11:21:02.035Z,1019.47
2023-04-16T11:28:01.802Z,1019.51
2023-04-16T11:35:01.579Z,1019.596
2023-04-16T11:42:01.666Z,1019.596
2023-04-16T11:49:02.295Z,1019.582
2023-04-16T11:56:01.685Z,1019.515
2023-04-16T12:00:03.979Z,1019.515
2023-04-16T12:07:01.801Z,1019.519
2023-04-16T12:14:01.367Z,1019.535
2023-04-16T12:21:01.730Z,1019.535
2023-04-16T12:28:01.822Z,1019.472
2023-04-16T12:35:02.178Z,1019.523
2023-04-16T12:42:02.263Z,1019.564
2023-04-16T12:49:01.834Z,1019.564
2023-04-16T12:56:02.268Z,1019.658
2023-04-16T13:00:01.853Z,1019.658
2023-04-16T13:07:01.976Z,1019.542
2023-04-16T13:14:01.786Z,1019.572
2023-04-16T13:21:01.672Z,1019.513
2023-04-16T13:28:01.407Z,1019.513
2023-04-16T13:35:01.681Z,1019.524
2023-04-16T13:42:01.402Z,1019.296
2023-04-16T13:49:01.631Z,1019.617
2023-04-16T13:56:01.358Z,1019.617
2023-04-16T14:00:01.954Z,1019.421
2023-04-16T14:07:02.248Z,1019.421
2023-04-16T14:14:01.779Z,1019.637
2023-04-16T14:21:01.357Z,1019.602
2023-04-16T14:28:01.704Z,1019.565
2023-04-16T14:35:01.775Z,1019.565
2023-04-16T14:42:01.540Z,1019.594
2023-04-16T14:49:02.158Z,1019.488
2023-04-16T14:56:01.597Z,1019.488
2023-04-16T15:00:02.225Z,1019.635
2023-04-16T15:07:02.076Z,1019.487
2023-04-16T15:14:01.941Z,1019.487
2023-04-16T15:21:01.816Z,1019.466
2023-04-16T15:28:01.333Z,1019.411
2023-04-16T15:35:02.023Z,1019.411
2023-04-16T15:42:04.012Z,1019.505
2023-04-16T15:49:01.681Z,1019.571
2023-04-16T15:56:01.424Z,1019.598
2023-04-16T16:07:01.918Z,1019.557
2023-04-16T16:14:01.699Z,1019.466
2023-04-16T16:21:02.105Z,1019.466
2023-04-16T16:28:04.360Z,1019.477
2023-04-16T16:35:01.502Z,1019.598
2023-04-16T16:42:01.839Z,1019.598
2023-04-16T16:49:01.993Z,1019.594
2023-04-16T16:56:01.716Z,1019.917
2023-04-16T17:00:02.396Z,1019.917
2023-04-16T17:07:01.416Z,1019.761
2023-04-16T17:14:02.036Z,1019.914
2023-04-16T17:21:02.048Z,1019.914
2023-04-16T17:28:01.339Z,1020.019
2023-04-16T17:35:02.390Z,1019.8
2023-04-16T17:42:02.114Z,1019.973
2023-04-16T17:49:01.537Z,1019.973
2023-04-16T17:56:01.407Z,1019.891
2023-04-16T18:00:02.104Z,1019.891
2023-04-16T18:07:01.869Z,1020.02
2023-04-16T18:14:01.325Z,1020.134
2023-04-16T18:21:02.110Z,1020.118
2023-04-16T18:28:01.962Z,1020.118
2023-04-16T18:35:02.377Z,1020.092
2023-04-16T18:42:01.800Z,1020.349
2023-04-16T18:49:01.835Z,1020.418
2023-04-16T18:56:01.561Z,1020.418
2023-04-16T19:00:02.106Z,1020.376
2023-04-16T19:07:01.307Z,1020.376
2023-04-16T19:14:02.019Z,1020.355
2023-04-16T19:21:01.551Z,1020.591
2023-04-16T19:28:01.766Z,1020.578
2023-04-16T19:35:01.836Z,1020.578
2023-04-16T19:42:01.779Z,1020.59
2023-04-16T19:49:02.099Z,1020.736
2023-04-16T19:56:01.560Z,1020.736
2023-04-16T20:00:02.305Z,1020.859
2023-04-16T20:07:02.145Z,1020.793
2023-04-16T20:14:01.560Z,1020.793
2023-04-16T20:21:02.253Z,1020.833
2023-04-16T20:28:01.783Z,1020.915
2023-04-16T20:35:02.216Z,1020.869
2023-04-16T20:42:02.029Z,1020.869
2023-04-16T20:49:01.756Z,1020.815
2023-04-16T20:56:01.925Z,1020.716
2023-04-16T21:00:02.592Z,1020.716
2023-04-16T21:07:01.870Z,1020.855
2023-04-16T21:14:01.608Z,1020.884
2023-04-16T21:21:01.913Z,1020.884
2023-04-16T21:28:01.857Z,1020.837
2023-04-16T21:35:01.970Z,1020.789
2023-04-16T21:42:02.317Z,1020.789
2023-04-16T21:49:02.052Z,1020.669
2023-04-16T21:56:02.223Z,1020.739
2023-04-16T22:00:01.957Z,1020.739
2023-04-16T22:07:01.364Z,1020.811
2023-04-16T22:14:01.554Z,1020.865
2023-04-16T22:21:01.847Z,1020.865
2023-04-16T22:28:02.145Z,1020.949
2023-04-16T22:35:01.603Z,1020.686
2023-04-16T22:42:01.756Z,1020.458
2023-04-16T22:49:01.891Z,1020.458
2023-04-16T22:56:01.829Z,1020.779
2023-04-16T23:00:02.362Z,1020.403
2023-04-16T23:07:01.729Z,1020.403
2023-04-16T23:14:01.619Z,1020.238
2023-04-16T23:21:01.679Z,1020.818
2023-04-16T23:28:01.430Z,1020.818
2023-04-16T23:35:02.011Z,1020.487
2023-04-16T23:42:01.441Z,1020.764
2023-04-16T23:49:02.199Z,1020.758
2023-04-16T23:56:01.957Z,1020.758
